createdAt,value
2022-10-06T00:32:40.902Z,1013.85
2022-10-06T00:33:21.864Z,1013.81
2022-10-06T00:34:03.121Z,1013.8
2022-10-06T00:34:44.185Z,1013.83
2022-10-06T00:35:25.164Z,1013.8
2022-10-06T00:36:06.162Z,1013.85
2022-10-06T00:36:47.140Z,1013.88
2022-10-06T00:37:28.115Z,1013.87
2022-10-06T00:38:09.118Z,1013.88
2022-10-06T00:38:50.194Z,1013.84
2022-10-06T00:39:31.259Z,1013.86
2022-10-06T00:40:12.307Z,1013.85
2022-10-06T00:40:53.445Z,1013.88
2022-10-06T00:41:34.423Z,1013.89
2022-10-06T00:42:15.530Z,1013.88
2022-10-06T00:42:56.551Z,1013.94
2022-10-06T00:43:37.515Z,1013.97
2022-10-06T00:44:18.723Z,1014.02
2022-10-06T00:44:59.874Z,1014.04
2022-10-06T00:45:41.695Z,1014.02
2022-10-06T00:46:22.435Z,1013.99
2022-10-06T00:47:03.734Z,1013.96
2022-10-06T00:47:44.775Z,1013.98
2022-10-06T00:48:26.194Z,1013.98
2022-10-06T00:49:06.852Z,1013.98
2022-10-06T00:49:47.884Z,1014
2022-10-06T00:50:28.905Z,1014.06
2022-10-06T00:51:10.182Z,1014.02
2022-10-06T00:51:51.173Z,1014.01
2022-10-06T00:52:32.185Z,1014.05
2022-10-06T00:53:13.178Z,1014.07
2022-10-06T00:53:54.193Z,1014.05
2022-10-06T00:54:35.290Z,1014.07
2022-10-06T00:55:16.126Z,1014.06
2022-10-06T00:55:57.124Z,1014.08
2022-10-06T00:56:38.123Z,1014.1
2022-10-06T00:57:19.114Z,1014.17
2022-10-06T00:58:00.198Z,1014.22
2022-10-06T00:58:41.191Z,1014.14
2022-10-06T00:59:22.176Z,1014.14
2022-10-06T01:00:03.179Z,1014.22
2022-10-06T01:00:44.231Z,1014.17
2022-10-06T01:01:25.266Z,1014.16
2022-10-06T01:02:06.272Z,1014.2
2022-10-06T01:02:47.424Z,1014.17
2022-10-06T01:03:28.361Z,1014.16
2022-10-06T01:04:09.399Z,1014.17
2022-10-06T01:04:50.394Z,1014.22
2022-10-06T01:05:31.371Z,1014.2
2022-10-06T01:06:12.391Z,1014.25
2022-10-06T01:06:53.389Z,1014.26
2022-10-06T01:07:34.362Z,1014.24
2022-10-06T01:08:15.474Z,1014.23
2022-10-06T01:08:56.502Z,1014.25
2022-10-06T01:09:37.443Z,1014.23
2022-10-06T01:10:18.426Z,1014.24
2022-10-06T01:10:59.346Z,1014.3
2022-10-06T01:11:40.440Z,1014.35
2022-10-06T01:12:21.554Z,1014.32
2022-10-06T01:13:02.534Z,1014.31
2022-10-06T01:13:43.603Z,1014.37
2022-10-06T01:14:24.534Z,1014.34
2022-10-06T01:15:05.531Z,1014.33
2022-10-06T01:15:46.550Z,1014.31
2022-10-06T01:16:27.648Z,1014.33
2022-10-06T01:17:08.594Z,1014.35
2022-10-06T01:17:49.593Z,1014.38
2022-10-06T01:18:30.945Z,1014.39
2022-10-06T01:19:11.697Z,1014.39
2022-10-06T01:19:52.713Z,1014.43
2022-10-06T01:20:33.661Z,1014.39
2022-10-06T01:21:55.618Z,1014.46
2022-10-06T01:22:36.635Z,1014.44
2022-10-06T01:23:17.637Z,1014.42
2022-10-06T01:23:58.723Z,1014.44
2022-10-06T01:24:39.705Z,1014.48
2022-10-06T01:25:20.659Z,1014.45
2022-10-06T01:26:01.683Z,1014.43
2022-10-06T01:29:15.563Z,1014.44
2022-10-06T01:29:56.228Z,1014.5
2022-10-06T01:30:36.682Z,1014.51
2022-10-06T01:31:17.205Z,1014.52
2022-10-06T01:31:57.646Z,1014.55
2022-10-06T01:32:38.208Z,1014.61
2022-10-06T01:33:18.642Z,1014.49
2022-10-06T01:33:59.134Z,1014.58
2022-10-06T01:34:39.642Z,1014.59
2022-10-06T01:35:20.084Z,1014.56
2022-10-06T01:36:00.563Z,1014.64
2022-10-06T01:36:41.052Z,1014.67
2022-10-06T01:37:21.539Z,1014.67
2022-10-06T01:38:02.046Z,1014.66
2022-10-06T01:39:23.035Z,1014.67
2022-10-06T01:40:03.531Z,1014.66
2022-10-06T01:40:44.078Z,1014.68
2022-10-06T01:41:24.553Z,1014.68
2022-10-06T01:42:05.074Z,1014.67
2022-10-06T01:42:45.616Z,1014.68
2022-10-06T01:43:26.064Z,1014.66
2022-10-06T01:44:06.551Z,1014.69
2022-10-06T01:44:47.064Z,1014.74
2022-10-06T01:45:27.551Z,1014.72
2022-10-06T01:46:08.065Z,1014.73
2022-10-06T01:46:48.557Z,1014.74
2022-10-06T01:47:29.006Z,1014.75
2022-10-06T01:48:09.417Z,1014.71
2022-10-06T01:49:30.501Z,1014.77
2022-10-06T01:50:10.957Z,1014.78
2022-10-06T01:50:51.525Z,1014.79
2022-10-06T01:51:31.912Z,1014.78
2022-10-06T01:52:12.358Z,1014.81
2022-10-06T01:52:52.867Z,1014.81
2022-10-06T01:53:33.290Z,1014.8
2022-10-06T01:54:13.881Z,1014.79
2022-10-06T01:54:54.306Z,1014.81
2022-10-06T01:55:34.775Z,1014.78
2022-10-06T01:56:15.252Z,1014.77
2022-10-06T01:56:55.801Z,1014.81
2022-10-06T01:57:36.229Z,1014.83
2022-10-06T01:58:16.817Z,1014.89
2022-10-06T01:58:57.418Z,1014.89
2022-10-06T01:59:37.926Z,1014.85
2022-10-06T02:01:51.317Z,1014.95
2022-10-06T02:02:31.693Z,1014.93
2022-10-06T02:03:12.126Z,1014.98
2022-10-06T02:03:52.668Z,1014.98
2022-10-06T02:04:33.102Z,1014.97
2022-10-06T02:05:13.619Z,1014.98
2022-10-06T02:05:54.132Z,1015.01
2022-10-06T02:06:34.625Z,1014.98
2022-10-06T02:07:15.007Z,1014.95
2022-10-06T02:07:55.527Z,1015.03
2022-10-06T02:08:35.981Z,1014.93
2022-10-06T02:09:16.475Z,1014.94
2022-10-06T02:09:56.986Z,1015.02
2022-10-06T02:10:37.459Z,1015.04
2022-10-06T02:11:17.915Z,1015.05
2022-10-06T02:11:58.340Z,1015.01
2022-10-06T02:12:38.825Z,1015.02
2022-10-06T02:13:19.354Z,1015.04
2022-10-06T02:14:40.267Z,1015.07
2022-10-06T02:15:20.800Z,1015.08
2022-10-06T02:16:01.277Z,1015.09
2022-10-06T02:16:41.711Z,1015.1
2022-10-06T02:17:22.211Z,1015.09
2022-10-06T02:18:02.665Z,1015.12
2022-10-06T02:18:43.153Z,1015.12
2022-10-06T02:19:23.664Z,1015.12
2022-10-06T02:20:04.121Z,1015.15
2022-10-06T02:20:44.636Z,1015.12
2022-10-06T02:21:25.125Z,1015.17
2022-10-06T02:22:05.573Z,1015.2
2022-10-06T02:22:46.126Z,1015.23
2022-10-06T02:23:26.574Z,1015.17
2022-10-06T02:24:07.032Z,1015.14
2022-10-06T02:24:47.571Z,1015.21
2022-10-06T02:25:28.042Z,1015.16
2022-10-06T02:26:08.553Z,1015.25
2022-10-06T02:26:49.041Z,1015.26
2022-10-06T02:27:29.512Z,1015.26
2022-10-06T02:28:10.047Z,1015.26
2022-10-06T02:28:50.590Z,1015.26
2022-10-06T02:29:30.997Z,1015.25
2022-10-06T02:30:11.468Z,1015.25
2022-10-06T02:30:52.128Z,1015.28
2022-10-06T02:31:32.465Z,1015.25
2022-10-06T02:32:13.000Z,1015.28
2022-10-06T02:32:53.480Z,1015.23
2022-10-06T02:33:34.017Z,1015.29
2022-10-06T02:34:14.458Z,1015.3
2022-10-06T02:34:54.930Z,1015.25
2022-10-06T02:35:35.439Z,1015.31
2022-10-06T02:36:15.949Z,1015.28
2022-10-06T02:36:56.341Z,1015.28
2022-10-06T02:37:36.826Z,1015.29
2022-10-06T02:38:17.344Z,1015.28
2022-10-06T02:38:57.781Z,1015.34
2022-10-06T02:39:38.269Z,1015.32
2022-10-06T02:40:18.727Z,1015.35
2022-10-06T02:40:59.188Z,1015.35
2022-10-06T02:41:39.671Z,1015.34
2022-10-06T02:42:20.140Z,1015.36
2022-10-06T02:43:00.584Z,1015.36
2022-10-06T02:43:41.088Z,1015.43
2022-10-06T02:44:21.595Z,1015.35
2022-10-06T02:45:02.028Z,1015.39
2022-10-06T02:45:42.537Z,1015.42
2022-10-06T02:46:23.086Z,1015.39
2022-10-06T02:47:03.483Z,1015.42
2022-10-06T02:47:44.018Z,1015.44
2022-10-06T02:48:24.476Z,1015.43
2022-10-06T02:49:04.950Z,1015.5
2022-10-06T02:49:45.429Z,1015.47
2022-10-06T02:50:25.925Z,1015.48
2022-10-06T02:51:06.402Z,1015.48
2022-10-06T02:51:46.918Z,1015.46
2022-10-06T02:52:27.413Z,1015.48
2022-10-06T02:53:07.944Z,1015.45
2022-10-06T02:53:48.496Z,1015.45
2022-10-06T02:54:28.927Z,1015.5
2022-10-06T02:55:09.369Z,1015.53
2022-10-06T02:55:49.838Z,1015.49
2022-10-06T02:56:30.364Z,1015.53
2022-10-06T02:57:10.814Z,1015.49
2022-10-06T02:57:51.315Z,1015.56
2022-10-06T02:58:32.196Z,1015.55
2022-10-06T02:59:12.249Z,1015.54
2022-10-06T02:59:52.747Z,1015.61
2022-10-06T03:00:33.256Z,1015.53
2022-10-06T03:01:13.707Z,1015.58
2022-10-06T03:02:34.776Z,1015.62
2022-10-06T03:03:15.151Z,1015.69
2022-10-06T03:03:55.625Z,1015.68
2022-10-06T03:04:36.104Z,1015.71
2022-10-06T03:05:16.544Z,1015.7
2022-10-06T03:05:57.042Z,1015.72
2022-10-06T03:06:37.530Z,1015.7
2022-10-06T03:07:18.057Z,1015.69
2022-10-06T03:07:58.510Z,1015.68
2022-10-06T03:08:38.980Z,1015.71
2022-10-06T03:09:19.485Z,1015.74
2022-10-06T03:09:59.961Z,1015.78
2022-10-06T03:10:40.534Z,1015.83
2022-10-06T03:11:21.003Z,1015.81
2022-10-06T03:12:01.463Z,1015.81
2022-10-06T03:12:41.937Z,1015.86
2022-10-06T03:13:22.504Z,1015.84
2022-10-06T03:14:02.933Z,1015.82
2022-10-06T03:14:43.399Z,1015.87
2022-10-06T03:15:23.871Z,1015.83
2022-10-06T03:16:04.419Z,1015.85
2022-10-06T03:16:44.833Z,1015.89
2022-10-06T03:17:25.299Z,1015.85
2022-10-06T03:18:05.840Z,1015.88
2022-10-06T03:18:46.283Z,1015.9
2022-10-06T03:19:26.731Z,1015.92
2022-10-06T03:20:07.208Z,1015.97
2022-10-06T03:20:47.722Z,1015.91
2022-10-06T03:21:28.295Z,1016
2022-10-06T03:22:08.798Z,1015.94
2022-10-06T03:22:49.290Z,1016
2022-10-06T03:23:29.725Z,1016.04
2022-10-06T03:24:10.191Z,1016.04
2022-10-06T03:24:50.699Z,1016.01
2022-10-06T03:25:31.175Z,1016.08
2022-10-06T03:26:11.633Z,1016.09
2022-10-06T03:26:52.179Z,1016.11
2022-10-06T03:27:32.606Z,1016.11
2022-10-06T03:28:13.172Z,1016.09
2022-10-06T03:28:53.529Z,1016.1
2022-10-06T03:30:14.524Z,1016.15
2022-10-06T03:30:54.977Z,1016.11
2022-10-06T03:31:35.508Z,1016.1
2022-10-06T03:32:15.943Z,1016.09
2022-10-06T03:32:56.422Z,1016.11
2022-10-06T03:33:36.899Z,1016.17
2022-10-06T03:34:17.353Z,1016.18
2022-10-06T03:34:57.877Z,1016.19
2022-10-06T03:35:38.451Z,1016.2
2022-10-06T03:36:18.898Z,1016.22
2022-10-06T03:36:59.417Z,1016.16
2022-10-06T03:37:39.914Z,1016.21
2022-10-06T03:38:20.525Z,1016.23
2022-10-06T03:39:00.942Z,1016.24
2022-10-06T03:39:41.400Z,1016.23
2022-10-06T03:40:21.868Z,1016.33
2022-10-06T03:41:02.315Z,1016.35
2022-10-06T03:41:42.829Z,1016.38
2022-10-06T03:42:23.289Z,1016.38
2022-10-06T03:43:03.734Z,1016.39
2022-10-06T03:43:44.200Z,1016.41
2022-10-06T03:44:24.717Z,1016.35
2022-10-06T03:45:05.205Z,1016.41
2022-10-06T03:45:45.737Z,1016.41
2022-10-06T03:46:26.243Z,1016.49
2022-10-06T03:47:06.769Z,1016.46
2022-10-06T03:47:47.187Z,1016.51
2022-10-06T03:48:28.031Z,1016.46
2022-10-06T03:49:08.134Z,1016.51
2022-10-06T03:49:48.588Z,1016.52
2022-10-06T03:50:29.056Z,1016.5
2022-10-06T03:51:09.536Z,1016.52
2022-10-06T03:51:50.069Z,1016.53
2022-10-06T03:52:30.473Z,1016.55
2022-10-06T03:53:10.955Z,1016.58
2022-10-06T03:53:51.480Z,1016.57
2022-10-06T03:54:31.916Z,1016.57
2022-10-06T03:55:12.437Z,1016.62
2022-10-06T03:55:52.907Z,1016.67
2022-10-06T03:56:33.353Z,1016.64
2022-10-06T03:57:13.820Z,1016.6
2022-10-06T03:57:54.339Z,1016.61
2022-10-06T03:58:34.757Z,1016.64
2022-10-06T03:59:15.226Z,1016.68
2022-10-06T03:59:55.717Z,1016.63
2022-10-06T04:00:36.209Z,1016.66
2022-10-06T04:01:16.734Z,1016.65
2022-10-06T04:01:57.171Z,1016.68
2022-10-06T04:02:37.599Z,1016.67
2022-10-06T04:03:18.039Z,1016.68
2022-10-06T04:07:57.763Z,1016.76
2022-10-06T04:08:38.112Z,1016.74
2022-10-06T04:09:18.629Z,1016.81
2022-10-06T04:09:59.103Z,1016.83
2022-10-06T04:10:39.626Z,1016.83
2022-10-06T04:11:20.110Z,1016.81
2022-10-06T04:12:41.087Z,1016.89
2022-10-06T04:13:21.626Z,1016.9
2022-10-06T04:14:02.118Z,1016.9
2022-10-06T04:14:42.602Z,1016.98
2022-10-06T04:15:23.092Z,1016.96
2022-10-06T04:16:03.596Z,1016.95
2022-10-06T04:16:44.114Z,1017.01
2022-10-06T04:17:24.631Z,1017.03
2022-10-06T04:18:05.824Z,1017
2022-10-06T04:18:46.319Z,1017.03
2022-10-06T04:19:26.807Z,1017
2022-10-06T04:20:07.259Z,1016.97
2022-10-06T04:20:47.749Z,1017.01
2022-10-06T04:21:28.278Z,1017.02
2022-10-06T04:22:49.251Z,1017.04
2022-10-06T04:23:29.725Z,1017.02
2022-10-06T04:24:10.237Z,1017.1
2022-10-06T04:24:50.680Z,1017.1
2022-10-06T04:25:31.167Z,1017.1
2022-10-06T04:26:11.626Z,1017.12
2022-10-06T04:26:52.106Z,1017.12
2022-10-06T04:27:32.547Z,1017.15
2022-10-06T04:28:13.058Z,1017.15
2022-10-06T04:28:53.472Z,1017.21
2022-10-06T04:29:33.989Z,1017.17
2022-10-06T04:30:14.502Z,1017.2
2022-10-06T04:30:55.021Z,1017.25
2022-10-06T04:31:35.642Z,1017.24
2022-10-06T04:32:16.079Z,1017.26
2022-10-06T04:32:56.580Z,1017.24
2022-10-06T04:33:37.056Z,1017.22
2022-10-06T04:34:17.559Z,1017.25
2022-10-06T04:35:38.545Z,1017.3
2022-10-06T04:36:19.005Z,1017.34
2022-10-06T04:36:59.492Z,1017.37
2022-10-06T04:37:39.975Z,1017.37
2022-10-06T04:38:20.477Z,1017.4
2022-10-06T04:39:01.016Z,1017.42
2022-10-06T04:39:41.428Z,1017.43
2022-10-06T04:40:21.928Z,1017.42
2022-10-06T04:41:02.379Z,1017.4
2022-10-06T04:41:42.973Z,1017.4
2022-10-06T04:42:23.512Z,1017.4
2022-10-06T04:43:03.981Z,1017.45
2022-10-06T04:43:44.518Z,1017.43
2022-10-06T04:44:25.039Z,1017.46
2022-10-06T04:45:05.595Z,1017.52
2022-10-06T04:45:46.117Z,1017.54
2022-10-06T04:46:43.531Z,1017.59
2022-10-06T04:47:07.138Z,1017.56
2022-10-06T04:47:47.569Z,1017.62
2022-10-06T04:48:28.317Z,1017.61
2022-10-06T04:49:08.576Z,1017.62
2022-10-06T04:49:48.979Z,1017.6
2022-10-06T04:50:29.494Z,1017.63
2022-10-06T04:51:10.040Z,1017.64
2022-10-06T04:51:50.558Z,1017.63
2022-10-06T04:52:31.660Z,1017.64
2022-10-06T04:53:12.199Z,1017.63
2022-10-06T04:53:52.666Z,1017.66
2022-10-06T04:54:33.963Z,1017.65
2022-10-06T04:55:13.651Z,1017.66
2022-10-06T04:55:54.216Z,1017.7
2022-10-06T04:56:35.302Z,1017.69
2022-10-06T04:57:15.793Z,1017.71
2022-10-06T04:57:56.318Z,1017.71
2022-10-06T04:58:36.800Z,1017.72
2022-10-06T04:59:17.301Z,1017.76
2022-10-06T04:59:59.463Z,1017.75
2022-10-06T05:00:38.270Z,1017.76
2022-10-06T05:01:18.781Z,1017.77
2022-10-06T05:01:59.243Z,1017.77
2022-10-06T05:02:39.841Z,1017.76
2022-10-06T05:03:20.352Z,1017.82
2022-10-06T05:04:00.846Z,1017.75
2022-10-06T05:04:41.952Z,1017.79
2022-10-06T05:06:02.984Z,1017.78
2022-10-06T05:06:43.499Z,1017.76
2022-10-06T05:07:24.058Z,1017.78
2022-10-06T05:08:04.466Z,1017.78
2022-10-06T05:08:44.987Z,1017.8
2022-10-06T05:09:25.447Z,1017.82
2022-10-06T05:10:05.951Z,1017.84
2022-10-06T05:10:46.452Z,1017.84
2022-10-06T05:11:27.566Z,1017.82
2022-10-06T05:12:08.097Z,1017.86
2022-10-06T05:13:29.836Z,1017.86
2022-10-06T05:14:10.362Z,1017.87
2022-10-06T05:14:50.830Z,1017.88
2022-10-06T05:15:31.292Z,1017.89
2022-10-06T05:16:11.806Z,1017.88
2022-10-06T05:16:52.322Z,1017.93
2022-10-06T05:17:32.748Z,1017.93
2022-10-06T05:18:13.266Z,1017.95
2022-10-06T05:18:53.717Z,1017.96
2022-10-06T05:19:34.261Z,1017.96
2022-10-06T05:20:14.814Z,1018.03
2022-10-06T05:20:55.376Z,1018.04
2022-10-06T05:21:35.840Z,1018.09
2022-10-06T05:22:16.371Z,1018.06
2022-10-06T05:22:56.856Z,1018.05
2022-10-06T05:23:37.338Z,1018.05
2022-10-06T05:24:17.843Z,1018.08
2022-10-06T05:24:58.320Z,1018.13
2022-10-06T05:25:38.841Z,1018.08
2022-10-06T05:26:19.340Z,1018.09
2022-10-06T05:27:01.804Z,1018.05
2022-10-06T05:27:40.348Z,1018.08
2022-10-06T05:28:20.943Z,1018.07
2022-10-06T05:29:01.428Z,1018.06
2022-10-06T05:29:41.896Z,1018.06
2022-10-06T05:30:22.427Z,1018.08
2022-10-06T05:31:02.927Z,1018.11
2022-10-06T05:31:43.452Z,1018.12
2022-10-06T05:32:23.908Z,1018.14
2022-10-06T05:33:04.412Z,1018.14
2022-10-06T05:33:44.908Z,1018.15
2022-10-06T05:34:25.353Z,1018.18
2022-10-06T05:35:05.827Z,1018.2
2022-10-06T05:35:46.330Z,1018.25
2022-10-06T05:36:26.888Z,1018.24
2022-10-06T05:37:07.440Z,1018.24
2022-10-06T05:37:47.936Z,1018.28
2022-10-06T05:38:28.683Z,1018.28
2022-10-06T05:39:08.838Z,1018.26
2022-10-06T05:39:49.416Z,1018.3
2022-10-06T05:41:10.721Z,1018.32
2022-10-06T05:41:51.305Z,1018.34
2022-10-06T05:42:32.724Z,1018.37
2022-10-06T05:43:13.163Z,1018.37
2022-10-06T05:43:53.683Z,1018.36
2022-10-06T05:44:34.172Z,1018.38
2022-10-06T05:45:14.668Z,1018.4
2022-10-06T05:45:55.145Z,1018.4
2022-10-06T05:46:35.595Z,1018.42
2022-10-06T05:47:16.104Z,1018.44
2022-10-06T05:47:56.539Z,1018.44
2022-10-06T05:48:37.021Z,1018.44
2022-10-06T05:49:17.503Z,1018.45
2022-10-06T05:49:58.019Z,1018.45
2022-10-06T05:50:38.528Z,1018.47
2022-10-06T06:32:03.036Z,1019.07
2022-10-06T06:32:44.148Z,1019.11
2022-10-06T06:33:24.630Z,1019.1
2022-10-06T06:34:05.161Z,1019.08
2022-10-06T06:34:45.611Z,1019.1
2022-10-06T06:35:26.154Z,1019.12
2022-10-06T06:36:06.702Z,1019.1
2022-10-06T06:36:47.185Z,1019.15
2022-10-06T06:37:27.690Z,1019.15
2022-10-06T06:38:08.171Z,1019.1
2022-10-06T06:38:48.698Z,1019.17
2022-10-06T06:39:29.208Z,1019.16
2022-10-06T06:40:09.699Z,1019.15
2022-10-06T06:40:50.217Z,1019.21
2022-10-06T06:41:31.497Z,1019.16
2022-10-06T06:42:12.545Z,1019.16
2022-10-06T06:42:54.861Z,1019.2
2022-10-06T06:43:35.380Z,1019.2
2022-10-06T06:44:16.007Z,1019.23
2022-10-06T06:44:56.537Z,1019.25
2022-10-06T06:45:37.000Z,1019.28
2022-10-06T06:46:17.708Z,1019.26
2022-10-06T06:46:58.074Z,1019.24
2022-10-06T06:47:38.568Z,1019.26
2022-10-06T06:48:19.152Z,1019.3
2022-10-06T06:48:59.641Z,1019.35
2022-10-06T06:49:41.192Z,1019.33
2022-10-06T06:50:21.769Z,1019.34
2022-10-06T06:51:42.738Z,1019.35
2022-10-06T06:52:23.330Z,1019.37
2022-10-06T06:53:03.802Z,1019.38
2022-10-06T06:53:44.362Z,1019.4
2022-10-06T06:54:24.847Z,1019.43
2022-10-06T06:55:05.373Z,1019.41
2022-10-06T06:55:45.960Z,1019.42
2022-10-06T06:56:26.506Z,1019.36
2022-10-06T06:57:07.042Z,1019.41
2022-10-06T06:57:47.496Z,1019.4
2022-10-06T06:58:28.435Z,1019.46
2022-10-06T06:59:08.592Z,1019.44
2022-10-06T06:59:49.625Z,1019.44
2022-10-06T07:00:35.342Z,1019.44
2022-10-06T07:01:13.329Z,1019.48
2022-10-06T07:01:53.909Z,1019.5
2022-10-06T07:02:37.317Z,1019.49
2022-10-06T07:03:28.216Z,1019.5
2022-10-06T07:03:59.603Z,1019.56
2022-10-06T07:04:40.375Z,1019.55
2022-10-06T07:05:22.540Z,1019.59
2022-10-06T07:06:03.126Z,1019.59
2022-10-06T07:06:43.825Z,1019.63
2022-10-06T07:07:24.571Z,1019.66
2022-10-06T07:08:05.063Z,1019.62
2022-10-06T07:08:45.804Z,1019.63
2022-10-06T07:09:26.309Z,1019.62
2022-10-06T07:10:06.830Z,1019.57
2022-10-06T07:12:05.485Z,1019.63
2022-10-06T07:12:47.652Z,1019.63
2022-10-06T07:13:28.167Z,1019.64
2022-10-06T07:14:08.708Z,1019.66
2022-10-06T07:14:50.028Z,1019.68
2022-10-06T07:15:30.672Z,1019.7
2022-10-06T07:16:11.182Z,1019.73
2022-10-06T07:16:51.681Z,1019.69
2022-10-06T07:17:32.223Z,1019.75
2022-10-06T07:18:12.716Z,1019.75
2022-10-06T07:18:53.403Z,1019.77
2022-10-06T07:19:34.020Z,1019.77
2022-10-06T07:20:14.484Z,1019.78
2022-10-06T07:20:55.046Z,1019.79
2022-10-06T07:21:36.507Z,1019.76
2022-10-06T07:22:17.020Z,1019.8
2022-10-06T07:22:57.535Z,1019.79
2022-10-06T07:26:17.035Z,1019.9
2022-10-06T07:26:57.893Z,1019.91
2022-10-06T07:27:38.438Z,1019.94
2022-10-06T07:28:18.921Z,1019.89
2022-10-06T07:29:39.924Z,1019.98
2022-10-06T07:30:20.468Z,1019.96
2022-10-06T07:31:01.041Z,1019.99
2022-10-06T07:31:41.565Z,1019.98
2022-10-06T07:32:24.700Z,1019.99
2022-10-06T07:33:05.254Z,1020.08
2022-10-06T07:33:47.121Z,1020.03
2022-10-06T07:34:27.686Z,1020.02
2022-10-06T07:35:08.117Z,1020.06
2022-10-06T07:37:03.995Z,1020.04
2022-10-06T07:37:43.741Z,1020.08
2022-10-06T07:38:25.186Z,1020.09
2022-10-06T07:39:05.865Z,1020.11
2022-10-06T07:39:46.393Z,1020.11
2022-10-06T07:40:27.001Z,1020.12
2022-10-06T07:41:18.702Z,1020.2
2022-10-06T07:41:48.099Z,1020.17
2022-10-06T07:42:29.182Z,1020.17
2022-10-06T07:43:09.823Z,1020.21
2022-10-06T07:43:51.708Z,1020.16
2022-10-06T07:44:33.770Z,1020.19
2022-10-06T07:45:15.104Z,1020.11
2022-10-06T07:45:55.934Z,1020.17
2022-10-06T07:46:36.394Z,1020.19
2022-10-06T07:47:17.051Z,1020.23
2022-10-06T07:47:57.554Z,1020.24
2022-10-06T07:48:38.051Z,1020.28
2022-10-06T07:49:18.573Z,1020.28
2022-10-06T07:49:59.140Z,1020.24
2022-10-06T07:50:39.752Z,1020.25
2022-10-06T07:51:20.296Z,1020.24
2022-10-06T07:52:00.806Z,1020.32
2022-10-06T07:52:41.427Z,1020.32
2022-10-06T07:53:21.933Z,1020.3
2022-10-06T07:54:02.423Z,1020.36
2022-10-06T07:54:43.047Z,1020.31
2022-10-06T07:55:23.571Z,1020.35
2022-10-06T07:56:04.057Z,1020.33
2022-10-06T07:56:44.642Z,1020.34
2022-10-06T07:57:25.205Z,1020.35
2022-10-06T07:58:06.745Z,1020.36
2022-10-06T07:58:48.030Z,1020.36
2022-10-06T07:59:29.419Z,1020.34
2022-10-06T08:00:09.914Z,1020.35
2022-10-06T08:00:50.544Z,1020.38
2022-10-06T08:01:31.067Z,1020.37
2022-10-06T08:02:28.241Z,1020.42
2022-10-06T08:03:07.678Z,1020.41
2022-10-06T08:03:48.141Z,1020.33
2022-10-06T08:04:28.648Z,1020.4
2022-10-06T08:07:47.764Z,1020.45
2022-10-06T08:08:28.790Z,1020.45
2022-10-06T08:09:10.053Z,1020.4
2022-10-06T08:09:50.842Z,1020.43
2022-10-06T08:10:32.253Z,1020.44
2022-10-06T08:11:13.582Z,1020.46
2022-10-06T08:11:54.158Z,1020.43
2022-10-06T08:12:34.893Z,1020.46
2022-10-06T08:13:17.209Z,1020.43
2022-10-06T08:13:57.691Z,1020.51
2022-10-06T08:14:38.230Z,1020.47
2022-10-06T08:15:19.518Z,1020.48
2022-10-06T08:16:01.204Z,1020.51
2022-10-06T08:16:42.381Z,1020.51
2022-10-06T08:17:22.906Z,1020.51
2022-10-06T08:18:27.119Z,1020.57
2022-10-06T08:18:50.414Z,1020.51
2022-10-06T08:19:31.008Z,1020.58
2022-10-06T08:20:12.799Z,1020.57
2022-10-06T08:20:53.760Z,1020.6
2022-10-06T08:21:34.533Z,1020.63
2022-10-06T08:22:14.909Z,1020.59
2022-10-06T08:22:56.509Z,1020.61
2022-10-06T08:23:37.172Z,1020.62
2022-10-06T08:24:18.121Z,1020.66
2022-10-06T08:25:06.066Z,1020.66
2022-10-06T08:25:40.097Z,1020.66
2022-10-06T08:26:22.162Z,1020.61
2022-10-06T08:29:42.216Z,1020.63
2022-10-06T08:30:22.687Z,1020.61
2022-10-06T08:31:03.276Z,1020.69
2022-10-06T08:31:43.791Z,1020.66
2022-10-06T08:32:24.712Z,1020.69
2022-10-06T08:33:05.208Z,1020.7
2022-10-06T08:33:45.819Z,1020.71
2022-10-06T08:35:06.763Z,1020.69
2022-10-06T08:35:47.299Z,1020.68
2022-10-06T08:36:31.233Z,1020.68
2022-10-06T08:37:19.669Z,1020.7
2022-10-06T08:37:49.372Z,1020.7
2022-10-06T08:38:29.997Z,1020.75
2022-10-06T08:39:10.460Z,1020.76
2022-10-06T08:39:50.999Z,1020.72
2022-10-06T08:40:31.673Z,1020.69
2022-10-06T08:44:21.166Z,1020.66
2022-10-06T08:45:02.598Z,1020.76
2022-10-06T08:45:42.366Z,1020.78
2022-10-06T08:46:24.007Z,1020.72
2022-10-06T08:47:03.362Z,1020.76
2022-10-06T08:47:43.854Z,1020.79
2022-10-06T08:48:24.396Z,1020.74
2022-10-06T08:49:04.898Z,1020.72
2022-10-06T08:49:45.410Z,1020.79
2022-10-06T08:50:26.071Z,1020.83
2022-10-06T08:51:06.614Z,1020.79
2022-10-06T08:51:47.188Z,1020.76
2022-10-06T08:52:27.707Z,1020.86
2022-10-06T08:53:08.919Z,1020.89
2022-10-06T08:53:48.855Z,1020.85
2022-10-06T08:54:29.270Z,1020.89
2022-10-06T08:55:09.799Z,1020.9
2022-10-06T08:55:50.283Z,1020.91
2022-10-06T08:56:30.932Z,1020.91
2022-10-06T08:57:11.429Z,1020.92
2022-10-06T08:57:51.983Z,1020.88
2022-10-06T08:58:33.392Z,1020.93
2022-10-06T08:59:13.073Z,1020.89
2022-10-06T08:59:53.888Z,1020.94
2022-10-06T09:00:34.268Z,1020.95
2022-10-06T09:01:14.742Z,1020.96
2022-10-06T09:01:55.323Z,1020.97
2022-10-06T09:02:35.791Z,1020.95
2022-10-06T09:03:16.303Z,1020.96
2022-10-06T09:03:56.908Z,1020.97
2022-10-06T09:04:37.356Z,1020.95
2022-10-06T09:05:18.836Z,1020.97
2022-10-06T09:05:59.440Z,1020.99
2022-10-06T09:06:40.128Z,1020.98
2022-10-06T09:07:20.668Z,1020.95
2022-10-06T09:08:01.316Z,1021
2022-10-06T09:08:42.488Z,1021.04
2022-10-06T09:09:23.802Z,1021.01
2022-10-06T09:10:05.162Z,1021.03
2022-10-06T09:10:46.434Z,1021.01
2022-10-06T09:11:26.952Z,1021.03
2022-10-06T09:12:07.530Z,1021.02
2022-10-06T09:12:48.076Z,1021.03
2022-10-06T09:13:28.631Z,1021.07
2022-10-06T09:14:09.276Z,1021.03
2022-10-06T09:14:49.762Z,1021.04
2022-10-06T09:15:31.101Z,1021.09
2022-10-06T09:16:11.746Z,1021.13
2022-10-06T09:16:52.189Z,1021.15
2022-10-06T09:17:32.649Z,1021.17
2022-10-06T09:18:13.185Z,1021.15
2022-10-06T09:19:08.048Z,1021.16
2022-10-06T09:19:35.406Z,1021.17
2022-10-06T09:20:16.008Z,1021.24
2022-10-06T09:20:57.221Z,1021.21
2022-10-06T09:21:37.766Z,1021.22
2022-10-06T09:22:18.314Z,1021.27
2022-10-06T09:22:58.902Z,1021.24
2022-10-06T09:23:39.329Z,1021.25
2022-10-06T09:24:19.828Z,1021.24
2022-10-06T09:25:00.388Z,1021.18
2022-10-06T09:25:41.032Z,1021.2
2022-10-06T09:26:21.509Z,1021.26
2022-10-06T09:27:02.043Z,1021.23
2022-10-06T09:27:43.622Z,1021.19
2022-10-06T09:28:24.225Z,1021.2
2022-10-06T09:29:05.672Z,1021.25
2022-10-06T09:29:47.647Z,1021.19
2022-10-06T09:30:28.277Z,1021.19
2022-10-06T09:31:09.531Z,1021.28
2022-10-06T09:31:50.080Z,1021.26
2022-10-06T09:32:30.569Z,1021.32
2022-10-06T09:33:11.174Z,1021.29
2022-10-06T09:33:51.647Z,1021.27
2022-10-06T09:34:32.266Z,1021.29
2022-10-06T09:35:12.970Z,1021.19
2022-10-06T09:35:53.458Z,1021.26
2022-10-06T09:36:34.106Z,1021.22
2022-10-06T09:37:14.620Z,1021.27
2022-10-06T09:37:55.093Z,1021.27
2022-10-06T09:38:35.743Z,1021.28
2022-10-06T09:39:16.309Z,1021.26
2022-10-06T09:39:57.073Z,1021.28
2022-10-06T09:40:37.454Z,1021.27
2022-10-06T09:41:18.056Z,1021.25
2022-10-06T09:41:58.921Z,1021.02
2022-10-06T09:42:39.460Z,1021.26
2022-10-06T09:43:19.930Z,1021.32
2022-10-06T09:44:01.054Z,1021.33
2022-10-06T09:44:45.546Z,1021.29
2022-10-06T09:45:26.556Z,1021.28
2022-10-06T09:49:48.690Z,1021.34
2022-10-06T09:50:30.727Z,1021.33
2022-10-06T09:51:12.814Z,1021.36
2022-10-06T09:51:54.382Z,1021.35
2022-10-06T09:52:36.162Z,1021.4
2022-10-06T09:53:16.897Z,1021.39
2022-10-06T09:53:57.895Z,1021.39
2022-10-06T09:54:38.985Z,1021.41
2022-10-06T09:55:20.026Z,1021.34
2022-10-06T09:56:01.048Z,1021.38
2022-10-06T09:56:42.713Z,1021.38
2022-10-06T09:57:24.669Z,1021.37
2022-10-06T09:58:06.311Z,1021.4
2022-10-06T10:01:22.105Z,1021.39
2022-10-06T10:02:04.504Z,1021.33
2022-10-06T10:02:44.897Z,1021.39
2022-10-06T10:03:25.452Z,1021.4
2022-10-06T10:04:19.843Z,1021.4
2022-10-06T10:04:51.418Z,1021.36
2022-10-06T10:05:27.929Z,1021.37